createdAt,value
2022-08-16T00:02:29.974Z,64.31
2022-08-16T00:17:21.055Z,64.20
2022-08-16T00:32:13.243Z,63.70
2022-08-16T00:47:06.169Z,64.25
2022-08-16T01:01:58.039Z,64.92
2022-08-16T01:16:49.305Z,65.89
2022-08-16T01:31:42.838Z,66.77
2022-08-16T01:46:39.956Z,67.25
2022-08-16T02:01:26.194Z,67.57
2022-08-16T02:16:18.726Z,67.25
2022-08-16T02:31:09.210Z,67.09
2022-08-16T02:46:00.932Z,67.89
2022-08-16T03:00:53.268Z,68.48
2022-08-16T03:15:46.388Z,69.13
2022-08-16T03:30:37.959Z,68.60
2022-08-16T03:45:31.880Z,67.54
2022-08-16T04:00:41.158Z,67.32
2022-08-16T04:15:17.052Z,67.00
2022-08-16T04:30:10.998Z,66.96
2022-08-16T04:45:01.964Z,66.84
2022-08-16T05:15:01.790Z,65.22
2022-08-16T05:29:59.971Z,65.32
2022-08-16T05:44:32.614Z,66.04
2022-08-16T05:59:26.831Z,67.52
2022-08-16T06:14:17.840Z,67.79
2022-08-16T06:29:10.159Z,68.71
2022-08-16T06:44:02.482Z,68.10
2022-08-16T06:58:54.943Z,66.12
2022-08-16T07:14:00.727Z,64.65
2022-08-16T07:28:40.669Z,63.46
2022-08-16T07:43:34.294Z,61.80
2022-08-16T07:58:35.099Z,60.36
2022-08-16T08:13:19.898Z,59.63
2022-08-16T08:28:11.865Z,58.35
2022-08-16T08:43:12.071Z,58.43
2022-08-16T08:57:57.552Z,58.29
2022-08-16T09:12:50.566Z,57.97
2022-08-16T09:27:47.001Z,56.65
2022-08-16T09:42:55.923Z,56.95
2022-08-16T09:57:27.649Z,54.87
2022-08-16T10:12:42.582Z,52.92
2022-08-16T10:27:46.200Z,51.65
2022-08-16T10:42:29.433Z,50.59
2022-08-16T10:57:24.598Z,48.77
2022-08-16T11:12:15.086Z,47.88
2022-08-16T11:27:32.539Z,47.00
2022-08-16T12:44:31.556Z,39.72
2022-08-16T12:59:24.531Z,38.40
2022-08-16T13:14:30.861Z,38.55
2022-08-16T13:29:09.818Z,37.70
2022-08-16T13:44:04.214Z,36.59
2022-08-16T13:58:58.360Z,35.67
2022-08-16T14:13:52.027Z,34.44
2022-08-16T14:28:45.179Z,32.45
2022-08-16T14:43:36.806Z,32.09
2022-08-16T14:58:36.679Z,31.76
2022-08-16T15:13:25.789Z,31.60
2022-08-16T15:28:30.617Z,29.81
2022-08-16T15:43:14.415Z,29.70
2022-08-16T15:58:35.768Z,29.76
2022-08-16T16:12:56.299Z,31.41
2022-08-16T16:27:55.383Z,32.01
2022-08-16T16:42:44.440Z,33.14
2022-08-16T16:57:59.481Z,33.66
2022-08-16T17:12:52.020Z,33.72
2022-08-16T17:27:44.287Z,34.91
2022-08-16T17:42:36.993Z,35.20
2022-08-16T17:57:29.659Z,35.94
2022-08-16T18:12:55.495Z,36.92
2022-08-16T18:27:25.402Z,38.70
2022-08-16T18:42:12.546Z,39.70
2022-08-16T18:57:08.285Z,40.61
2022-08-16T19:11:58.796Z,42.13
